createdAt,value
2023-04-14T00:02:08.653Z,99817.78
2023-04-14T00:04:35.917Z,99816.13
2023-04-14T00:07:02.966Z,99811.91
2023-04-14T00:09:30.084Z,99803.00
2023-04-14T00:11:57.640Z,99801.69
2023-04-14T00:14:24.392Z,99798.59
2023-04-14T00:16:51.310Z,99796.38
2023-04-14T00:19:18.239Z,99796.16
2023-04-14T00:21:44.942Z,99805.06
2023-04-14T00:24:11.631Z,99807.97
2023-04-14T00:26:38.582Z,99801.91
2023-04-14T00:29:05.419Z,99801.66
2023-04-14T00:31:32.440Z,99793.38
2023-04-14T00:34:00.773Z,99795.81
2023-04-14T00:36:27.484Z,99792.66
2023-04-14T00:38:54.191Z,99799.91
2023-04-14T00:41:20.890Z,99795.34
2023-04-14T00:43:47.556Z,99792.81
2023-04-14T00:46:17.283Z,99793.09
2023-04-14T00:48:44.518Z,99791.22
2023-04-14T00:51:11.816Z,99792.84
2023-04-14T00:53:40.919Z,99787.25
2023-04-14T00:56:08.203Z,99783.78
2023-04-14T00:58:35.612Z,99790.31
2023-04-14T01:01:03.014Z,99791.22
2023-04-14T01:03:29.944Z,99794.53
2023-04-14T01:05:58.145Z,99794.94
2023-04-14T01:08:25.670Z,99793.31
2023-04-14T01:11:06.637Z,99796.34
2023-04-14T01:13:53.702Z,99791.81
2023-04-14T01:16:31.831Z,99785.97
2023-04-14T01:19:20.620Z,99791.94
2023-04-14T01:21:55.010Z,99792.50
2023-04-14T01:24:52.272Z,99793.25
2023-04-14T01:27:38.529Z,99791.22
2023-04-14T01:30:20.700Z,99791.94
2023-04-14T01:32:49.987Z,99797.38
2023-04-14T01:35:26.066Z,99789.44
2023-04-14T01:37:56.117Z,99791.91
2023-04-14T01:40:27.726Z,99794.84
2023-04-14T01:43:04.363Z,99793.56
2023-04-14T01:45:39.588Z,99790.53
2023-04-14T01:48:07.966Z,99792.75
2023-04-14T01:50:36.534Z,99796.56
2023-04-14T01:53:06.776Z,99793.19
2023-04-14T01:55:37.658Z,99795.84
2023-04-14T01:58:06.693Z,99803.44
2023-04-14T02:00:36.025Z,99799.38
2023-04-14T02:03:04.868Z,99803.69
2023-04-14T02:05:34.785Z,99810.66
2023-04-14T02:08:06.134Z,99818.53
2023-04-14T02:10:33.997Z,99823.06
2023-04-14T02:13:04.644Z,99826.09
2023-04-14T02:15:32.257Z,99835.03
2023-04-14T02:18:00.668Z,99833.28
2023-04-14T02:20:28.694Z,99838.97
2023-04-14T02:22:55.738Z,99838.31
2023-04-14T02:25:25.639Z,99839.81
2023-04-14T02:28:00.237Z,99840.00
2023-04-14T02:30:33.914Z,99835.69
2023-04-14T02:33:12.205Z,99837.31
2023-04-14T02:35:48.431Z,99834.66
2023-04-14T02:38:33.338Z,99834.97
2023-04-14T02:41:02.555Z,99844.94
2023-04-14T02:43:36.876Z,99840.41
2023-04-14T02:46:06.303Z,99854.19
2023-04-14T02:48:35.845Z,99849.78
2023-04-14T02:51:05.067Z,99852.69
2023-04-14T02:53:34.406Z,99852.09
2023-04-14T02:56:11.999Z,99846.53
2023-04-14T02:58:42.724Z,99850.69
2023-04-14T03:01:10.995Z,99853.50
2023-04-14T03:03:38.408Z,99858.72
2023-04-14T03:06:09.239Z,99853.75
2023-04-14T03:08:37.460Z,99850.91
2023-04-14T03:11:05.661Z,99859.19
2023-04-14T03:13:34.479Z,99866.09
2023-04-14T03:16:03.441Z,99860.91
2023-04-14T03:18:32.237Z,99855.00
2023-04-14T03:21:02.267Z,99849.66
2023-04-14T03:23:31.854Z,99847.69
2023-04-14T03:26:03.415Z,99844.31
2023-04-14T03:28:34.100Z,99848.78
2023-04-14T03:31:06.162Z,99853.66
2023-04-14T03:33:43.717Z,99846.91
2023-04-14T03:36:15.029Z,99854.00
2023-04-14T03:38:42.476Z,99856.13
2023-04-14T03:41:10.437Z,99857.63
2023-04-14T03:43:39.781Z,99859.16
2023-04-14T03:46:11.135Z,99856.72
2023-04-14T03:48:42.546Z,99862.81
2023-04-14T03:51:13.900Z,99857.06
2023-04-14T03:53:43.153Z,99857.94
2023-04-14T03:56:13.434Z,99860.97
2023-04-14T03:58:43.927Z,99856.66
2023-04-14T04:01:12.311Z,99850.53
2023-04-14T04:03:40.858Z,99858.06
2023-04-14T04:06:08.157Z,99862.81
2023-04-14T04:08:36.367Z,99860.34
2023-04-14T04:11:07.307Z,99857.91
2023-04-14T04:13:36.729Z,99868.53
2023-04-14T04:16:07.037Z,99864.56
2023-04-14T04:18:38.117Z,99869.91
2023-04-14T04:21:07.158Z,99870.78
2023-04-14T04:23:37.228Z,99870.59
2023-04-14T04:26:04.360Z,99876.06
2023-04-14T04:28:36.935Z,99867.69
2023-04-14T04:31:06.239Z,99873.25
2023-04-14T04:33:34.415Z,99872.56
2023-04-14T04:36:01.995Z,99876.75
2023-04-14T04:38:35.603Z,99879.84
2023-04-14T04:41:02.448Z,99882.09
2023-04-14T04:43:31.596Z,99882.56
2023-04-14T04:45:58.358Z,99887.66
2023-04-14T04:48:26.200Z,99895.94
2023-04-14T04:50:52.852Z,99895.25
2023-04-14T04:53:19.596Z,99893.72
2023-04-14T04:55:46.266Z,99888.16
2023-04-14T04:58:12.962Z,99887.59
2023-04-14T05:00:39.886Z,99892.03
2023-04-14T05:03:06.772Z,99889.50
2023-04-14T05:05:37.142Z,99882.66
2023-04-14T05:08:03.973Z,99886.03
2023-04-14T05:10:30.749Z,99891.63
2023-04-14T05:12:57.458Z,99895.22
2023-04-14T05:15:24.055Z,99887.09
2023-04-14T05:17:50.956Z,99894.75
2023-04-14T05:20:17.666Z,99895.69
2023-04-14T05:22:44.251Z,99893.88
2023-04-14T05:25:10.830Z,99894.31
2023-04-14T05:27:37.457Z,99896.31
2023-04-14T05:30:07.248Z,99898.97
2023-04-14T05:32:33.920Z,99890.66
2023-04-14T05:35:00.589Z,99898.72
2023-04-14T05:37:29.840Z,99906.69
2023-04-14T05:39:56.577Z,99906.19
2023-04-14T05:42:23.507Z,99909.31
2023-04-14T05:44:50.149Z,99918.19
2023-04-14T05:47:16.794Z,99914.13
2023-04-14T05:49:43.443Z,99916.59
2023-04-14T05:52:10.406Z,99918.50
2023-04-14T05:54:37.052Z,99918.16
2023-04-14T05:57:03.864Z,99917.47
2023-04-14T05:59:30.592Z,99913.00
2023-04-14T06:01:57.279Z,99920.00
2023-04-14T06:04:26.612Z,99913.47
2023-04-14T06:06:53.297Z,99908.38
2023-04-14T06:09:19.888Z,99908.69
2023-04-14T06:11:46.647Z,99916.75
2023-04-14T06:14:13.337Z,99927.97
2023-04-14T06:16:39.946Z,99920.41
2023-04-14T06:19:06.550Z,99918.84
2023-04-14T06:21:33.281Z,99912.44
2023-04-14T06:23:59.911Z,99906.28
2023-04-14T06:26:26.590Z,99916.06
2023-04-14T06:28:53.653Z,99925.91
2023-04-14T06:31:20.700Z,99925.34
2023-04-14T06:33:47.397Z,99916.09
2023-04-14T06:36:16.844Z,99907.47
2023-04-14T06:38:43.744Z,99919.94
2023-04-14T06:41:10.588Z,99919.91
2023-04-14T06:43:37.224Z,99922.56
2023-04-14T06:46:03.994Z,99917.81
2023-04-14T06:48:30.775Z,99919.25
2023-04-14T06:50:57.505Z,99919.53
2023-04-14T06:53:24.234Z,99919.31
2023-04-14T06:55:59.618Z,99917.56
2023-04-14T06:58:27.682Z,99918.00
2023-04-14T07:00:56.197Z,99917.81
2023-04-14T07:03:41.591Z,99922.63
2023-04-14T07:06:11.612Z,99912.78
2023-04-14T07:08:40.513Z,99921.72
2023-04-14T07:11:09.530Z,99927.94
2023-04-14T07:13:37.023Z,99916.31
2023-04-14T07:16:04.328Z,99917.53
2023-04-14T07:18:31.764Z,99926.59
2023-04-14T07:21:00.408Z,99923.97
2023-04-14T07:23:27.857Z,99918.84
2023-04-14T07:25:58.808Z,99919.69
2023-04-14T07:28:26.913Z,99910.84
2023-04-14T07:30:54.148Z,99914.66
2023-04-14T07:33:22.497Z,99897.91
2023-04-14T07:36:01.230Z,99911.59
2023-04-14T07:38:28.743Z,99911.13
2023-04-14T07:40:55.546Z,99910.28
2023-04-14T07:43:22.676Z,99912.06
2023-04-14T07:45:49.711Z,99903.84
2023-04-14T07:48:19.444Z,99909.13
2023-04-14T07:50:49.692Z,99901.41
2023-04-14T07:53:16.379Z,99903.91
2023-04-14T07:55:43.039Z,99902.03
2023-04-14T07:58:09.821Z,99901.84
2023-04-14T08:00:36.645Z,99900.91
2023-04-14T08:03:03.483Z,99900.31
2023-04-14T08:05:30.352Z,99905.03
2023-04-14T08:07:57.091Z,99902.03
2023-04-14T08:10:23.908Z,99901.31
2023-04-14T08:12:50.615Z,99901.31
2023-04-14T08:15:17.267Z,99906.00
2023-04-14T08:17:44.359Z,99898.63
2023-04-14T08:20:11.364Z,99899.22
2023-04-14T08:22:38.088Z,99892.91
2023-04-14T08:25:05.030Z,99892.56
2023-04-14T08:27:31.878Z,99891.88
2023-04-14T08:29:58.501Z,99892.03
2023-04-14T08:32:25.286Z,99890.84
2023-04-14T08:35:39.047Z,99892.06
2023-04-14T08:37:41.910Z,99892.06
2023-04-14T08:40:12.466Z,99890.34
2023-04-14T08:42:39.916Z,99890.03
2023-04-14T08:45:07.570Z,99892.47
2023-04-14T08:47:36.247Z,99890.53
2023-04-14T08:50:10.319Z,99893.03
2023-04-14T08:52:41.590Z,99891.13
2023-04-14T08:55:11.153Z,99890.34
2023-04-14T08:57:41.216Z,99888.94
2023-04-14T09:00:09.678Z,99884.41
2023-04-14T09:02:40.289Z,99891.97
2023-04-14T09:05:08.056Z,99889.00
2023-04-14T09:07:35.958Z,99875.97
2023-04-14T09:10:03.336Z,99873.31
2023-04-14T09:12:32.244Z,99879.81
2023-04-14T09:14:59.311Z,99884.44
2023-04-14T09:17:26.886Z,99868.75
2023-04-14T09:20:35.614Z,99874.78
2023-04-14T09:22:40.662Z,99863.63
2023-04-14T09:25:08.842Z,99866.59
2023-04-14T09:27:35.948Z,99867.69
2023-04-14T09:30:03.506Z,99864.75
2023-04-14T09:32:31.060Z,99865.28
2023-04-14T09:34:58.522Z,99860.66
2023-04-14T09:37:26.110Z,99855.66
2023-04-14T09:39:55.419Z,99860.59
2023-04-14T09:42:39.600Z,99856.84
2023-04-14T09:45:06.947Z,99846.56
2023-04-14T09:47:33.835Z,99856.75
2023-04-14T09:50:04.065Z,99852.34
2023-04-14T09:52:42.086Z,99848.34
2023-04-14T09:55:13.327Z,99850.97
2023-04-14T09:57:51.804Z,99851.00
2023-04-14T10:00:21.645Z,99849.34
2023-04-14T10:03:01.392Z,99838.84
2023-04-14T10:05:32.017Z,99843.69
2023-04-14T10:08:05.387Z,99834.28
2023-04-14T10:10:32.702Z,99836.38
2023-04-14T10:13:00.449Z,99831.75
2023-04-14T10:15:27.662Z,99839.38
2023-04-14T10:17:54.488Z,99830.97
2023-04-14T10:20:21.988Z,99834.19
2023-04-14T10:22:49.751Z,99832.88
2023-04-14T10:25:18.157Z,99836.66
2023-04-14T10:27:45.472Z,99832.34
2023-04-14T10:30:12.498Z,99830.66
2023-04-14T10:32:40.646Z,99825.31
2023-04-14T10:35:10.158Z,99823.66
2023-04-14T10:37:37.258Z,99820.66
2023-04-14T10:40:06.902Z,99818.81
2023-04-14T10:42:54.268Z,99810.78
2023-04-14T10:45:22.043Z,99803.63
2023-04-14T10:47:50.097Z,99809.50
2023-04-14T10:50:18.275Z,99805.00
2023-04-14T10:52:56.138Z,99807.25
2023-04-14T10:55:26.883Z,99802.41
2023-04-14T10:58:04.124Z,99795.41
2023-04-14T11:00:32.358Z,99794.63
2023-04-14T11:03:06.417Z,99778.16
2023-04-14T11:05:34.371Z,99791.66
2023-04-14T11:08:11.930Z,99783.56
2023-04-14T11:10:38.799Z,99782.75
2023-04-14T11:13:08.542Z,99775.72
2023-04-14T11:15:49.231Z,99768.72
2023-04-14T11:18:20.609Z,99761.97
2023-04-14T11:20:47.768Z,99766.53
2023-04-14T11:23:15.280Z,99760.63
2023-04-14T11:25:42.684Z,99752.78
2023-04-14T11:28:09.387Z,99757.63
2023-04-14T11:30:36.000Z,99745.50
2023-04-14T11:33:02.881Z,99750.34
2023-04-14T11:35:31.226Z,99753.59
2023-04-14T11:38:00.372Z,99742.53
2023-04-14T11:40:28.002Z,99742.69
2023-04-14T11:42:58.882Z,99727.09
2023-04-14T11:45:29.749Z,99732.75
2023-04-14T11:48:04.363Z,99721.91
2023-04-14T11:50:33.263Z,99716.25
2023-04-14T11:53:00.677Z,99716.16
2023-04-14T11:55:28.068Z,99713.44
2023-04-14T11:57:58.052Z,99710.13
2023-04-14T12:00:25.215Z,99707.88
2023-04-14T12:02:52.495Z,99707.41
2023-04-14T12:05:30.298Z,99698.97
2023-04-14T12:08:02.122Z,99690.41
2023-04-14T12:10:29.191Z,99684.94
2023-04-14T12:13:04.277Z,99690.84
2023-04-14T12:15:38.639Z,99688.06
2023-04-14T12:18:08.447Z,99684.75
2023-04-14T12:20:44.944Z,99689.50
2023-04-14T12:23:11.920Z,99681.53
2023-04-14T12:25:39.442Z,99679.22
2023-04-14T12:28:06.436Z,99678.63
2023-04-14T12:30:34.301Z,99671.34
2023-04-14T12:33:09.531Z,99665.25
2023-04-14T12:35:36.244Z,99663.13
2023-04-14T12:38:09.741Z,99669.09
2023-04-14T12:40:38.116Z,99671.38
2023-04-14T12:43:05.188Z,99659.84
2023-04-14T12:45:41.511Z,99662.50
2023-04-14T12:48:08.354Z,99659.28
2023-04-14T12:50:35.235Z,99652.91
2023-04-14T12:53:02.802Z,99637.78
2023-04-14T12:55:31.123Z,99642.94
2023-04-14T12:57:58.871Z,99641.41
2023-04-14T13:00:27.633Z,99642.31
2023-04-14T13:02:55.635Z,99631.09
2023-04-14T13:05:22.925Z,99624.09
2023-04-14T13:07:49.671Z,99623.38
2023-04-14T13:10:16.398Z,99625.25
2023-04-14T13:12:43.022Z,99628.00
2023-04-14T13:15:22.448Z,99618.88
2023-04-14T13:17:57.006Z,99612.69
2023-04-14T13:20:23.685Z,99603.75
2023-04-14T13:22:50.319Z,99615.03
2023-04-14T13:25:16.929Z,99605.03
2023-04-14T13:27:43.579Z,99594.94
2023-04-14T13:30:10.850Z,99598.56
2023-04-14T13:32:37.650Z,99594.56
2023-04-14T13:35:04.693Z,99593.28
2023-04-14T13:37:31.473Z,99588.78
2023-04-14T13:39:58.081Z,99592.69
2023-04-14T13:42:24.788Z,99588.88
2023-04-14T13:44:51.482Z,99591.16
2023-04-14T13:47:19.002Z,99585.09
2023-04-14T13:49:45.664Z,99583.28
2023-04-14T13:52:12.331Z,99586.31
2023-04-14T13:54:39.047Z,99580.94
2023-04-14T13:57:05.905Z,99579.34
2023-04-14T13:59:33.028Z,99571.75
2023-04-14T14:01:59.940Z,99562.63
2023-04-14T14:04:27.345Z,99571.97
2023-04-14T14:06:54.206Z,99566.13
2023-04-14T14:09:21.061Z,99554.63
2023-04-14T14:11:47.701Z,99558.25
2023-04-14T14:14:14.904Z,99553.28
2023-04-14T14:16:42.021Z,99553.13
2023-04-14T14:19:10.940Z,99547.63
2023-04-14T14:21:37.967Z,99546.28
2023-04-14T14:24:05.134Z,99541.00
2023-04-14T14:26:31.917Z,99545.34
2023-04-14T14:28:58.587Z,99540.09
2023-04-14T14:31:25.502Z,99533.41
2023-04-14T14:33:52.192Z,99531.56
2023-04-14T14:36:18.950Z,99532.00
2023-04-14T14:38:45.785Z,99534.44
2023-04-14T14:41:12.537Z,99534.47
2023-04-14T14:43:39.228Z,99532.09
2023-04-14T14:46:06.120Z,99531.03
2023-04-14T14:48:32.873Z,99527.09
2023-04-14T14:50:59.547Z,99531.22
2023-04-14T14:53:26.070Z,99523.38
2023-04-14T14:55:52.808Z,99529.72
2023-04-14T14:58:19.389Z,99532.72
2023-04-14T15:00:47.336Z,99530.47
2023-04-14T15:03:14.385Z,99539.31
2023-04-14T15:05:41.540Z,99533.78
2023-04-14T15:08:08.578Z,99547.09
2023-04-14T15:10:35.217Z,99556.56
2023-04-14T15:13:01.972Z,99555.59
2023-04-14T15:15:29.009Z,99560.25
2023-04-14T15:17:56.179Z,99564.28
2023-04-14T15:20:22.884Z,99558.34
2023-04-14T15:22:49.623Z,99541.16
2023-04-14T15:25:16.229Z,99527.44
2023-04-14T15:27:42.932Z,99529.81
2023-04-14T15:30:10.434Z,99520.88
2023-04-14T15:32:37.141Z,99529.59
2023-04-14T15:35:03.921Z,99522.09
2023-04-14T15:37:30.723Z,99522.06
2023-04-14T15:39:57.375Z,99520.41
2023-04-14T15:42:24.000Z,99515.16
2023-04-14T15:44:53.560Z,99510.81
2023-04-14T15:47:20.300Z,99512.25
2023-04-14T15:49:49.936Z,99513.44
2023-04-14T15:52:33.625Z,99518.09
2023-04-14T15:55:00.337Z,99515.22
2023-04-14T15:57:26.956Z,99522.69
2023-04-14T15:59:53.547Z,99515.75
2023-04-14T16:02:20.230Z,99527.13
2023-04-14T16:04:47.094Z,99523.56
2023-04-14T16:07:13.928Z,99527.69
2023-04-14T16:09:40.592Z,99530.03
2023-04-14T16:12:07.512Z,99536.22
2023-04-14T16:14:35.299Z,99526.34
2023-04-14T16:17:02.224Z,99537.72
2023-04-14T16:19:28.871Z,99533.84
2023-04-14T16:21:57.047Z,99539.63
2023-04-14T16:24:23.770Z,99533.88
2023-04-14T16:26:50.340Z,99528.03
2023-04-14T16:29:16.956Z,99517.88
2023-04-14T16:31:43.860Z,99522.22
2023-04-14T16:34:10.519Z,99518.38
2023-04-14T16:36:38.644Z,99521.94
2023-04-14T16:39:06.115Z,99520.00
2023-04-14T16:41:33.434Z,99526.13
2023-04-14T16:44:00.706Z,99524.63
2023-04-14T16:46:27.601Z,99530.91
2023-04-14T16:48:54.215Z,99523.78
2023-04-14T16:51:21.000Z,99522.38
2023-04-14T16:53:48.588Z,99528.00
2023-04-14T16:56:15.716Z,99529.13
2023-04-14T16:58:42.455Z,99520.28
2023-04-14T17:01:09.514Z,99520.28
2023-04-14T17:03:37.023Z,99526.38
2023-04-14T17:06:04.039Z,99525.06
2023-04-14T17:08:30.782Z,99530.00
2023-04-14T17:10:58.054Z,99531.91
2023-04-14T17:13:24.831Z,99527.53
2023-04-14T17:15:58.961Z,99525.69
2023-04-14T17:18:33.392Z,99529.66
2023-04-14T17:21:00.169Z,99533.03
2023-04-14T17:23:27.324Z,99529.81
2023-04-14T17:25:55.852Z,99527.69
2023-04-14T17:28:22.775Z,99530.59
2023-04-14T17:30:50.094Z,99530.88
2023-04-14T17:33:17.336Z,99537.06
2023-04-14T17:35:44.143Z,99527.25
2023-04-14T17:38:10.803Z,99533.88
2023-04-14T17:40:37.576Z,99527.00
2023-04-14T17:43:07.258Z,99531.31
2023-04-14T17:45:35.035Z,99531.59
2023-04-14T17:48:01.735Z,99527.31
2023-04-14T17:50:29.284Z,99524.44
2023-04-14T17:52:57.395Z,99528.84
2023-04-14T17:55:24.194Z,99533.75
2023-04-14T17:57:51.492Z,99525.38
2023-04-14T18:00:18.859Z,99526.84
2023-04-14T18:02:45.695Z,99527.38
2023-04-14T18:05:13.155Z,99531.78
2023-04-14T18:07:41.804Z,99530.97
2023-04-14T18:10:08.772Z,99530.84
2023-04-14T18:12:36.554Z,99530.16
2023-04-14T18:15:07.087Z,99535.59
2023-04-14T18:17:36.587Z,99538.03
2023-04-14T18:20:04.160Z,99536.81
2023-04-14T18:22:31.539Z,99539.59
2023-04-14T18:24:58.277Z,99543.84
2023-04-14T18:29:54.576Z,99546.84
2023-04-14T18:32:22.241Z,99549.56
2023-04-14T18:34:48.848Z,99554.56
2023-04-14T18:37:15.833Z,99555.16
2023-04-14T18:39:42.844Z,99552.31
2023-04-14T18:42:10.173Z,99555.91
2023-04-14T18:44:36.862Z,99549.16
2023-04-14T18:47:03.505Z,99559.47
2023-04-14T18:49:30.165Z,99542.47
2023-04-14T18:51:56.801Z,99551.13
2023-04-14T18:54:23.830Z,99550.63
2023-04-14T18:56:50.796Z,99562.22
2023-04-14T18:59:18.531Z,99560.03
2023-04-14T19:01:45.289Z,99557.13
2023-04-14T19:04:12.138Z,99553.03
2023-04-14T19:06:40.341Z,99551.47
2023-04-14T19:09:07.599Z,99550.63
2023-04-14T19:11:36.073Z,99557.16
2023-04-14T19:14:06.073Z,99562.06
2023-04-14T19:16:33.664Z,99565.78
2023-04-14T19:19:00.873Z,99570.72
2023-04-14T19:21:28.084Z,99565.34
2023-04-14T19:23:56.977Z,99576.13
2023-04-14T19:26:24.267Z,99580.72
2023-04-14T19:28:52.806Z,99579.63
2023-04-14T19:31:21.474Z,99575.88
2023-04-14T19:33:49.155Z,99584.50
2023-04-14T19:36:17.839Z,99576.69
2023-04-14T19:38:44.765Z,99584.50
2023-04-14T19:41:12.049Z,99582.63
2023-04-14T19:43:38.968Z,99582.94
2023-04-14T19:46:10.326Z,99580.63
2023-04-14T19:48:37.104Z,99581.41
2023-04-14T19:51:04.004Z,99575.50
2023-04-14T19:53:30.958Z,99579.53
2023-04-14T19:55:59.412Z,99578.19
2023-04-14T19:58:28.375Z,99566.06
2023-04-14T20:00:59.052Z,99569.81
2023-04-14T20:03:26.972Z,99579.50
2023-04-14T20:05:57.576Z,99582.75
2023-04-14T20:08:27.798Z,99587.91
2023-04-14T20:10:54.995Z,99582.75
2023-04-14T20:13:24.322Z,99578.38
2023-04-14T20:15:53.792Z,99582.22
2023-04-14T20:18:20.902Z,99572.00
2023-04-14T20:20:48.575Z,99571.47
2023-04-14T20:23:15.928Z,99579.56
2023-04-14T20:25:44.033Z,99574.22
2023-04-14T20:28:10.905Z,99568.84
2023-04-14T20:30:37.995Z,99571.50
2023-04-14T20:33:05.887Z,99560.41
2023-04-14T20:35:37.283Z,99573.94
2023-04-14T20:38:05.722Z,99569.13
2023-04-14T20:40:33.272Z,99571.81
2023-04-14T20:43:02.657Z,99568.59
2023-04-14T20:45:29.883Z,99576.09
2023-04-14T20:47:57.232Z,99569.94
2023-04-14T20:50:24.223Z,99572.09
2023-04-14T20:52:51.234Z,99568.56
2023-04-14T20:55:19.347Z,99568.88
2023-04-14T20:57:47.857Z,99571.28
2023-04-14T21:00:16.538Z,99566.44
2023-04-14T21:02:44.495Z,99571.53
2023-04-14T21:05:12.018Z,99571.56
2023-04-14T21:07:43.672Z,99570.16
2023-04-14T21:10:11.738Z,99572.34
2023-04-14T21:15:00.454Z,99577.47
2023-04-14T21:15:50.666Z,99576.13
2023-04-14T21:18:13.941Z,99574.22
2023-04-14T21:20:41.384Z,99579.63
2023-04-14T21:23:08.152Z,99576.06
2023-04-14T21:25:35.482Z,99576.63
2023-04-14T21:28:02.425Z,99582.53
2023-04-14T21:30:29.512Z,99580.09
2023-04-14T21:32:56.532Z,99574.75
2023-04-14T21:35:23.378Z,99576.09
2023-04-14T21:37:50.027Z,99587.09
2023-04-14T21:40:20.261Z,99583.06
2023-04-14T21:42:47.433Z,99578.00
2023-04-14T21:45:14.632Z,99575.00
2023-04-14T21:47:41.550Z,99580.34
2023-04-14T21:50:09.611Z,99577.66
2023-04-14T21:52:37.130Z,99575.47
2023-04-14T21:55:04.255Z,99577.63
2023-04-14T21:57:44.363Z,99576.78
2023-04-14T22:00:17.757Z,99577.84
2023-04-14T22:02:45.459Z,99576.50
2023-04-14T22:05:15.142Z,99582.72
2023-04-14T22:07:41.974Z,99577.03
2023-04-14T22:10:08.973Z,99582.97
2023-04-14T22:12:36.166Z,99577.88
2023-04-14T22:15:08.897Z,99576.28
2023-04-14T22:17:37.470Z,99588.06
2023-04-14T22:20:09.821Z,99585.09
2023-04-14T22:22:36.834Z,99581.56
2023-04-14T22:25:04.654Z,99587.44
2023-04-14T22:27:33.595Z,99584.50
2023-04-14T22:30:01.401Z,99576.72
2023-04-14T22:32:30.516Z,99575.16
2023-04-14T22:34:57.533Z,99575.13
2023-04-14T22:37:24.334Z,99572.22
2023-04-14T22:39:51.503Z,99580.78
2023-04-14T22:42:18.106Z,99583.47
2023-04-14T22:44:44.970Z,99586.91
2023-04-14T22:47:11.890Z,99591.84
2023-04-14T22:49:38.709Z,99588.44
2023-04-14T22:52:05.527Z,99586.88
2023-04-14T22:54:32.681Z,99586.91
2023-04-14T22:56:59.648Z,99582.84
2023-04-14T22:59:26.886Z,99588.75
2023-04-14T23:01:53.797Z,99581.50
2023-04-14T23:04:20.650Z,99593.59
2023-04-14T23:06:47.339Z,99587.56
2023-04-14T23:09:14.075Z,99588.25
2023-04-14T23:11:40.820Z,99589.59
2023-04-14T23:14:08.354Z,99592.31
2023-04-14T23:16:35.115Z,99590.50
2023-04-14T23:19:02.984Z,99598.22
2023-04-14T23:21:30.186Z,99599.06
2023-04-14T23:23:56.858Z,99599.34
2023-04-14T23:26:23.565Z,99598.81
2023-04-14T23:28:50.437Z,99594.91
2023-04-14T23:31:17.913Z,99594.09
2023-04-14T23:33:45.498Z,99602.13
2023-04-14T23:36:13.463Z,99600.84
2023-04-14T23:38:40.205Z,99596.22
2023-04-14T23:41:07.156Z,99600.72
2023-04-14T23:43:34.658Z,99607.06
2023-04-14T23:46:01.845Z,99601.53
2023-04-14T23:48:28.672Z,99598.44
2023-04-14T23:51:00.567Z,99594.88
2023-04-14T23:53:41.054Z,99596.50
2023-04-14T23:56:07.982Z,99594.09
2023-04-14T23:58:34.737Z,99600.13
